Private Wetterstation Nrnberg - Katzwang
Wetterdaten: Februar 2014
Datum Temp. A. Feuchte A. Luftdruck Regen Wind Richtung Taupunkt Windchill Windben
01.02.2014 2,1 C 81 % 1004 hPa 0,0 l/m 2,6 km/h O-NO -0,9 C 1,6 C 3,6 km/h
02.02.2014 2,5 C 84 % 1013 hPa 2,1 l/m 0,0 km/h N-NO 0,1 C 2,5 C 1,0 km/h
03.02.2014 0,9 C 83 % 1009 hPa 0,0 l/m 1,5 km/h O -1,7 C 0,9 C 2,5 km/h
04.02.2014 0,6 C 81 % 1009 hPa 0,0 l/m 4,4 km/h O -2,3 C -0,6 C 5,4 km/h
05.02.2014 1,4 C 82 % 1001 hPa 0,0 l/m 5,5 km/h O-NO -1,4 C -0,6 C 6,5 km/h
06.02.2014 5,6 C 73 % 1004 hPa 0,0 l/m 5,3 km/h NO 1,1 C 4,8 C 6,3 km/h
07.02.2014 7,7 C 67 % 1001 hPa 0,0 l/m 10,8 km/h NO 1,8 C 5,5 C 18,8 km/h
08.02.2014 6,2 C 72 % 997 hPa 0,0 l/m 4,0 km/h NO 1,4 C 5,6 C 4,9 km/h
09.02.2014 4,1 C 76 % 999 hPa 2,6 l/m 3,4 km/h N 0,1 C 3,7 C 4,4 km/h
10.02.2014 2,2 C 76 % 994 hPa 0,0 l/m 2,2 km/h O -1,7 C 1,7 C 3,2 km/h
11.02.2014 1,9 C 76 % 1004 hPa 0,0 l/m 1,4 km/h W-NW -1,9 C 1,9 C 2,4 km/h
12.02.2014 1,4 C 78 % 1006 hPa 0,0 l/m 10,6 km/h O-NO -2,1 C -3,0 C 11,6 km/h
13.02.2014 5,1 C 80 % 997 hPa 5,2 l/m 8,8 km/h NO 1,8 C 3,1 C 9,8 km/h
14.02.2014 5,5 C 66 % 1006 hPa 0,0 l/m 5,7 km/h NO -0,5 C 4,4 C 6,7 km/h
15.02.2014 7,4 C 75 % 1004 hPa 1,6 l/m 6,3 km/h NO 3,2 C 5,0 C 11,8 km/h
16.02.2014 5,9 C 78 % 1010 hPa 0,0 l/m 6,8 km/h W-NW 2,2 C 4,1 C 7,8 km/h
17.02.2014 2,8 C 76 % 1014 hPa 0,0 l/m 0,0 km/h O -1,2 C 2,8 C 1,0 km/h
18.02.2014 3,9 C 78 % 1012 hPa 0,0 l/m 2,8 km/h NO 0,3 C 3,9 C 3,8 km/h
19.02.2014 5,7 C 79 % 1012 hPa 0,0 l/m 1,4 km/h W-NW 2,2 C 5,7 C 2,4 km/h
20.02.2014 5,2 C 76 % 1010 hPa 0,0 l/m 1,9 km/h N-NO 1,2 C 5,2 C 2,9 km/h
21.02.2014 5,6 C 80 % 1008 hPa 2,1 l/m 1,7 km/h N 2,4 C 5,5 C 2,7 km/h
22.02.2014 3,5 C 75 % 1015 hPa 0,0 l/m 0,7 km/h W-NW -0,6 C 3,5 C 1,7 km/h
23.02.2014 3,9 C 75 % 1020 hPa 0,0 l/m 1,7 km/h NO -0,2 C 3,9 C 2,7 km/h
24.02.2014 3,2 C 71 % 1014 hPa 0,0 l/m 2,7 km/h O -1,9 C 2,5 C 3,7 km/h
25.02.2014 4,6 C 69 % 1012 hPa 0,0 l/m 0,0 km/h O-NO -1,1 C 4,6 C 1,0 km/h
26.02.2014 6,1 C 69 % 1014 hPa 0,0 l/m 3,4 km/h O 0,5 C 5,9 C 4,4 km/h
27.02.2014 4,7 C 81 % 1012 hPa 4,7 l/m 1,0 km/h NO 1,6 C 4,7 C 2,0 km/h
28.02.2014 4,9 C 78 % 1001 hPa 0,5 l/m 1,0 km/h N-NO 1,4 C 4,9 C 2,0 km/h
Min-Datum 01.02.14 25.02.14 10.02.14 7 Tage 01.02.14 - 01.02.14 05.02.14 01.02.14
Min-Zeit 02:50 14:00 15:40 - 00:00 - 02:50 00:20 00:00
Minimum -4,3 C 43 % 991 hPa - 0,0 km/h - -6,6 C -15,7 C 1,0 km/h
Max-Datum 25.02.14 03.02.14 23.02.14 13.02.14 08.02.14 - 15.02.14 25.02.14 07.02.14
Max-Zeit 13:40 05:00 08:30 21:40 12:40 - 20:20 13:40 14:30
Maximum 14,3 C 85 % 1022 hPa 5,2 l/m 42,4 km/h
NO
- 6,7 C 14,3 C 61,2 km/h
NO
Durchschnitt 4,1 C 76 % 1007 hPa #18,6 l/m 3,5 km/h NO 0,1 C 3,3 C 4,9 km/h

Durchschnitt Minimum Temp.-0,1 C
Durchschnitt Maximum Temp.8,9 C